Time;durP1;ratioP1;P1;durP2;ratioP2;P2;SDS_P1;SDS_P2;PMS_P1;PMS_P2;Temp;Humidity;BMP_temperature;BMP_pressure;BME280_temperature;BME280_humidity;BME280_pressure;Samples;Min_cycle;Max_cycle;Signal;HPM_P1;HPM_P2
2024/02/17 00:00:15;;;;;;;10.02;5.00;;;13.80;99.90;;;13.97;90.01;102306.78;5072701;28;20052;-71
2024/02/17 00:02:43;;;;;;;7.93;5.20;;;13.70;99.90;;;14.01;89.79;102313.91;5070987;28;20077;-72
2024/02/17 00:05:11;;;;;;;8.85;4.93;;;13.70;99.90;;;13.70;89.92;102294.22;5072613;28;20087;-71
2024/02/17 00:07:40;;;;;;;9.55;5.35;;;13.60;99.90;;;13.98;89.96;102313.88;5072324;28;20151;-70
2024/02/17 00:10:10;;;;;;;10.05;5.00;;;13.70;99.90;;;13.31;90.06;102219.56;5072449;28;20542;-71
2024/02/17 00:12:39;;;;;;;9.10;5.32;;;13.60;99.90;;;13.84;90.58;102316.44;5072290;28;20102;-70
2024/02/17 00:15:09;;;;;;;9.65;4.95;;;13.60;99.90;;;13.73;91.23;102317.28;5072439;28;20098;-70
2024/02/17 00:17:38;;;;;;;12.77;5.00;;;13.50;99.90;;;13.89;91.29;102319.16;5071120;28;20047;-70
2024/02/17 00:20:08;;;;;;;10.98;5.28;;;13.60;99.90;;;13.83;91.20;102324.44;5072075;28;20083;-70
2024/02/17 00:22:37;;;;;;;9.13;4.82;;;13.60;99.90;;;13.37;90.63;102257.69;5072055;28;20135;-70
2024/02/17 00:25:06;;;;;;;10.90;5.05;;;13.60;99.90;;;13.81;91.04;102326.19;5070818;28;20052;-69
2024/02/17 00:27:36;;;;;;;8.07;5.00;;;13.50;99.90;;;13.27;91.04;102226.63;5071953;28;20442;-72
2024/02/17 00:30:05;;;;;;;7.70;5.00;;;13.60;99.90;;;13.92;91.02;102332.44;5071729;28;20052;-70
2024/02/17 00:32:34;;;;;;;8.00;4.82;;;13.60;99.90;;;13.93;90.81;102337.81;5071980;28;20115;-70
2024/02/17 00:35:02;;;;;;;8.00;5.00;;;13.60;99.90;;;14.01;90.34;102345.81;5071756;28;20123;-70
2024/02/17 00:37:31;;;;;;;12.45;4.82;;;13.70;99.90;;;14.10;90.03;102343.19;5071746;28;20482;-70
2024/02/17 00:40:01;;;;;;;7.88;5.20;;;13.80;99.90;;;14.05;90.31;102347.63;5071676;28;20045;-74
2024/02/17 00:42:29;;;;;;;14.35;5.40;;;13.80;99.90;;;14.02;90.07;102335.19;5071769;28;20135;-70
2024/02/17 00:44:59;;;;;;;9.68;5.00;;;13.70;99.90;;;13.99;90.04;102344.91;5071575;28;20045;-70
2024/02/17 00:47:28;;;;;;;9.47;5.30;;;13.70;99.90;;;14.05;90.35;102350.28;5071709;28;20041;-70
2024/02/17 00:49:56;;;;;;;10.82;5.57;;;13.70;99.90;;;14.01;89.79;102349.38;5071673;28;20299;-71
2024/02/17 00:52:25;;;;;;;12.90;5.53;;;13.70;99.90;;;14.01;89.88;102348.47;5069399;28;20074;-72
2024/02/17 00:54:53;;;;;;;10.50;5.32;;;13.70;99.90;;;13.90;90.02;102339.56;5071407;28;20048;-70
2024/02/17 00:57:22;;;;;;;10.63;5.38;;;13.70;99.90;;;13.94;90.27;102357.28;5071574;28;20048;-70
2024/02/17 00:59:50;;;;;;;9.73;5.55;;;13.60;99.90;;;13.87;90.51;102363.47;5071819;28;20040;-70
2024/02/17 01:02:20;;;;;;;11.80;5.25;;;13.60;99.90;;;13.76;90.81;102365.19;5071418;28;20044;-71
2024/02/17 01:04:48;;;;;;;13.38;5.85;;;13.50;99.90;;;13.71;91.20;102366.91;5071442;28;20040;-70
2024/02/17 01:07:17;;;;;;;10.05;4.88;;;13.40;99.90;;;13.64;91.96;102366.00;5070974;28;20044;-70
2024/02/17 01:09:45;;;;;;;13.98;6.05;;;13.30;99.90;;;13.57;92.20;102370.34;5070951;28;20452;-70
2024/02/17 01:12:14;;;;;;;9.60;4.95;;;13.30;99.90;;;13.58;92.19;102372.16;5070953;28;20044;-70
2024/02/17 01:14:45;;;;;;;13.85;5.53;;;13.30;99.90;;;13.69;91.92;102381.97;5071108;28;20040;-70
2024/02/17 01:17:14;;;;;;;10.15;5.07;;;13.40;99.90;;;13.74;91.91;102383.78;5071046;28;20052;-70
2024/02/17 01:19:44;;;;;;;10.88;5.50;;;13.40;99.90;;;13.87;91.58;102392.72;5071012;28;20048;-70
2024/02/17 01:22:13;;;;;;;10.88;5.38;;;13.50;99.90;;;13.85;91.26;102391.81;5069925;28;20067;-70
2024/02/17 01:24:43;;;;;;;9.18;5.75;;;13.60;99.90;;;13.76;91.40;102373.16;5070855;28;20037;-70
2024/02/17 01:27:11;;;;;;;9.15;5.78;;;13.60;99.90;;;13.91;91.19;102400.75;5070933;28;20509;-72
2024/02/17 01:29:40;;;;;;;11.98;6.15;;;13.60;99.90;;;13.90;90.79;102395.44;5070909;28;20055;-71
2024/02/17 01:32:08;;;;;;;10.73;5.65;;;13.60;99.90;;;13.93;91.01;102400.75;5070639;28;20486;-71
2024/02/17 01:34:37;;;;;;;10.82;5.38;;;13.70;99.90;;;13.71;91.16;102394.38;5070976;28;20109;-71
2024/02/17 01:37:06;;;;;;;12.80;5.13;;;13.50;99.90;;;13.75;91.92;102400.63;5070737;28;20459;-70
2024/02/17 01:39:35;;;;;;;12.75;5.85;;;13.50;99.90;;;13.70;91.43;102408.59;5071462;28;20056;-71
2024/02/17 01:42:04;;;;;;;12.40;5.68;;;13.40;99.90;;;13.67;91.50;102402.31;5070788;28;20540;-72
2024/02/17 01:44:32;;;;;;;17.23;6.45;;;13.40;99.90;;;13.64;92.41;102403.22;5070683;28;20083;-71
2024/02/17 01:47:01;;;;;;;12.13;5.50;;;13.30;99.90;;;13.64;92.26;102412.97;5070563;28;20048;-71
2024/02/17 01:49:30;;;;;;;13.43;5.97;;;13.30;99.90;;;13.53;92.88;102412.84;5070796;28;20412;-70
2024/02/17 01:52:00;;;;;;;12.70;6.15;;;13.20;99.90;;;13.44;93.30;102413.69;5071244;28;20456;-71
2024/02/17 01:54:30;;;;;;;;;;;13.20;99.90;;;13.36;93.78;102419.78;5071350;28;20044;-70
2024/02/17 01:57:00;;;;;;;14.50;6.25;;;13.10;99.90;;;13.15;94.32;102416.94;5070703;28;20297;-71
2024/02/17 01:59:30;;;;;;;11.20;5.90;;;12.90;99.90;;;13.21;94.47;102423.22;5070434;28;20401;-70
2024/02/17 02:01:59;;;;;;;11.98;5.20;;;12.90;99.90;;;13.09;95.22;102423.09;5070344;28;20685;-69
2024/02/17 02:04:28;;;;;;;15.10;7.00;;;12.80;99.90;;;12.84;96.32;102425.41;5068926;28;20064;-70
2024/02/17 02:06:56;;;;;;;12.90;5.55;;;12.60;99.90;;;12.72;97.71;102428.81;5070514;28;20051;-70
2024/02/17 02:09:25;;;;;;;14.80;5.65;;;12.50;99.90;;;12.75;98.02;102431.53;5070793;28;20119;-70
2024/02/17 02:11:56;;;;;;;14.93;5.22;;;12.50;99.90;;;12.85;97.76;102440.50;5070198;28;20504;-70
2024/02/17 02:14:26;;;;;;;11.07;5.28;;;12.50;99.90;;;12.84;97.31;102444.00;5070340;28;20172;-70
2024/02/17 02:16:54;;;;;;;14.70;5.70;;;12.60;99.90;;;12.90;97.38;102460.03;5070134;28;20055;-70
2024/02/17 02:19:23;;;;;;;12.55;5.70;;;12.60;99.90;;;12.86;97.38;102456.44;5070415;28;20051;-70
2024/02/17 02:21:52;;;;;;;16.38;5.72;;;12.60;99.90;;;12.74;98.00;102456.28;5070045;28;20119;-70
2024/02/17 02:24:20;;;;;;;11.98;5.70;;;12.50;99.90;;;12.78;98.23;102465.19;5070334;28;20041;-69
2024/02/17 02:26:50;;;;;;;14.63;5.90;;;12.50;99.90;;;12.56;98.58;102437.50;5070297;28;20119;-70
2024/02/17 02:29:19;;;;;;;11.70;5.87;;;12.50;99.90;;;12.76;98.76;102462.50;5069718;28;20064;-70
2024/02/17 02:31:47;;;;;;;15.73;5.93;;;12.50;99.90;;;12.70;98.82;102458.03;5069890;28;20309;-69
2024/02/17 02:34:16;;;;;;;9.80;5.38;;;12.50;99.90;;;12.75;98.94;102470.47;5070107;28;20439;-70
2024/02/17 02:36:44;;;;;;;13.07;6.00;;;12.50;99.90;;;12.74;99.21;102466.06;5070423;28;20103;-70
2024/02/17 02:39:13;;;;;;;16.63;5.78;;;12.50;99.90;;;12.55;99.98;102459.59;5070125;28;20509;-69
2024/02/17 02:41:43;;;;;;;15.80;5.85;;;12.40;99.90;;;12.60;100.00;102471.19;5069831;28;20068;-70
2024/02/17 02:44:13;;;;;;;13.95;5.97;;;12.30;99.90;;;12.65;100.00;102467.72;5070064;28;20045;-71
2024/02/17 02:46:41;;;;;;;16.88;5.88;;;12.40;99.90;;;12.47;100.00;102434.72;5068700;28;20140;-71
2024/02/17 02:49:10;;;;;;;15.80;5.90;;;12.40;99.90;;;12.58;100.00;102472.91;5069709;28;20041;-70
2024/02/17 02:51:38;;;;;;;12.90;5.90;;;12.40;99.90;;;12.46;100.00;102467.44;5069645;28;20064;-70
2024/02/17 02:54:07;;;;;;;14.93;6.82;;;12.30;99.90;;;12.61;100.00;102486.22;5069554;28;20040;-70
2024/02/17 02:56:35;;;;;;;19.10;6.55;;;12.30;99.90;;;12.53;100.00;102482.56;5068264;28;20080;-70
2024/02/17 02:59:04;;;;;;;17.00;6.15;;;12.30;99.90;;;12.56;100.00;102494.13;5069746;28;20041;-69
2024/02/17 03:01:33;;;;;;;16.40;6.20;;;12.30;99.90;;;12.56;100.00;102490.59;5069624;28;20117;-70
2024/02/17 03:04:02;;;;;;;16.58;6.65;;;12.30;99.90;;;12.57;100.00;102489.72;5069622;28;20041;-69
2024/02/17 03:06:30;;;;;;;15.30;6.20;;;12.30;99.90;;;12.64;100.00;102499.53;5069591;28;20028;-70
2024/02/17 03:08:59;;;;;;;15.55;7.10;;;12.30;99.90;;;12.62;100.00;102494.19;5069483;28;20494;-70
2024/02/17 03:11:28;;;;;;;14.20;6.38;;;12.30;99.90;;;12.49;100.00;102508.19;5069494;28;20150;-70
2024/02/17 03:13:57;;;;;;;16.13;7.07;;;12.20;99.90;;;12.45;100.00;102505.47;5069797;28;20480;-70
2024/02/17 03:16:25;;;;;;;18.50;6.20;;;12.20;99.90;;;12.54;100.00;102514.44;5072276;28;20068;-69
2024/02/17 03:18:55;;;;;;;16.17;6.50;;;12.20;99.90;;;12.54;100.00;102510.91;5072059;28;20592;-70
2024/02/17 03:21:24;;;;;;;13.25;5.50;;;12.20;99.90;;;12.55;100.00;102518.00;5073149;28;20567;-70
2024/02/17 03:23:52;;;;;;;17.58;6.20;;;12.20;99.90;;;12.44;100.00;102485.09;5073081;28;20043;-69
2024/02/17 03:26:21;;;;;;;18.02;6.55;;;12.30;99.90;;;12.56;100.00;102523.31;5073322;28;20394;-69
2024/02/17 03:28:49;;;;;;;15.15;6.03;;;12.30;99.90;;;12.53;100.00;102514.41;5073184;28;20060;-71
2024/02/17 03:31:19;;;;;;;21.15;7.47;;;12.30;99.90;;;12.51;100.00;102526.78;5072844;28;20086;-69
2024/02/17 03:33:47;;;;;;;15.48;6.43;;;12.20;99.90;;;12.62;100.00;102519.84;5073119;28;20240;-71
2024/02/17 03:36:17;;;;;;;15.27;6.10;;;12.30;99.90;;;12.50;100.00;102509.09;5072906;28;20497;-69
2024/02/17 03:38:46;;;;;;;18.77;6.47;;;12.30;99.90;;;12.57;100.00;102521.56;5073233;28;20453;-69
2024/02/17 03:41:15;;;;;;;16.15;6.43;;;12.30;99.90;;;12.55;100.00;102526.84;5071759;28;20287;-69
2024/02/17 03:43:43;;;;;;;18.65;6.28;;;12.30;99.90;;;12.59;100.00;102531.34;5073035;28;20139;-70
2024/02/17 03:46:12;;;;;;;15.05;5.88;;;12.30;99.90;;;12.56;100.00;102533.94;5072607;28;20404;-69
2024/02/17 03:48:40;;;;;;;11.65;6.05;;;12.30;99.90;;;12.71;100.00;102538.59;5072718;28;20083;-71
2024/02/17 03:51:09;;;;;;;17.02;6.15;;;12.40;99.90;;;12.61;100.00;102534.00;5072726;28;20448;-70
2024/02/17 03:53:39;;;;;;;16.77;6.70;;;12.40;99.90;;;12.78;100.00;102540.44;5072801;28;20406;-69
2024/02/17 03:56:08;;;;;;;22.88;6.93;;;12.40;99.90;;;12.47;100.00;102503.72;5072800;28;20044;-71
2024/02/17 03:58:36;;;;;;;16.88;6.40;;;12.40;99.90;;;12.74;100.00;102535.94;5073260;28;20051;-70
2024/02/17 04:01:05;;;;;;;17.02;6.68;;;12.40;99.90;;;12.69;100.00;102541.22;5072700;28;20431;-69
2024/02/17 04:03:33;;;;;;;15.85;6.90;;;12.40;99.90;;;12.63;100.00;102551.75;5072476;28;20036;-70
2024/02/17 04:06:02;;;;;;;13.60;6.40;;;12.40;99.90;;;12.72;100.00;102555.41;5072410;28;20044;-69
2024/02/17 04:08:31;;;;;;;20.17;6.97;;;12.40;99.90;;;12.62;100.00;102562.31;5072769;28;20072;-70
2024/02/17 04:11:01;;;;;;;15.93;7.32;;;12.30;99.90;;;12.54;100.00;102564.88;5072516;28;20051;-69
2024/02/17 04:13:30;;;;;;;18.08;7.05;;;12.30;99.90;;;12.67;100.00;102566.88;5072914;28;20060;-70
2024/02/17 04:15:58;;;;;;;17.13;6.63;;;12.30;99.90;;;12.44;100.00;102568.28;5072344;28;20482;-71
2024/02/17 04:18:27;;;;;;;15.93;7.03;;;12.20;99.90;;;12.61;100.00;102580.03;5072269;28;20032;-70
2024/02/17 04:20:55;;;;;;;12.48;6.20;;;12.30;99.90;;;12.55;100.00;102579.03;5072236;28;20049;-70
2024/02/17 04:23:24;;;;;;;11.45;6.07;;;12.20;99.90;;;12.30;100.00;102582.19;5072505;28;20052;-69
2024/02/17 04:25:52;;;;;;;15.88;6.53;;;12.10;99.90;;;12.40;100.00;102593.00;5072411;28;20049;-70
2024/02/17 04:28:22;;;;;;;16.38;6.97;;;12.10;99.90;;;12.50;100.00;102592.25;5072114;28;20447;-70
2024/02/17 04:30:51;;;;;;;15.18;6.72;;;12.10;99.90;;;12.51;100.00;102602.00;5070919;28;20059;-70
2024/02/17 04:33:19;;;;;;;16.00;6.15;;;12.10;99.90;;;12.41;100.00;102591.22;5072526;28;20156;-70
2024/02/17 04:35:48;;;;;;;14.70;6.10;;;12.10;99.90;;;12.47;100.00;102596.63;5071000;28;20127;-69
2024/02/17 04:38:16;;;;;;;14.73;6.25;;;12.10;99.90;;;12.48;100.00;102601.97;5072334;28;20438;-70
2024/02/17 04:40:45;;;;;;;14.85;5.70;;;12.20;99.90;;;12.55;100.00;102598.53;5071797;28;20045;-69
2024/02/17 04:43:14;;;;;;;18.42;6.05;;;12.20;99.90;;;12.49;100.00;102602.84;5071755;28;20048;-69
2024/02/17 04:45:44;;;;;;;19.48;6.93;;;12.20;99.90;;;12.47;100.00;102605.47;5071728;28;20064;-71
2024/02/17 04:48:12;;;;;;;20.00;6.65;;;12.20;99.90;;;12.48;100.00;102614.34;5071681;28;20048;-70
2024/02/17 04:50:41;;;;;;;17.02;6.57;;;12.20;99.90;;;12.51;100.00;102609.97;5072102;28;20059;-71
2024/02/17 04:53:09;;;;;;;16.92;6.40;;;12.20;99.90;;;12.33;100.00;102612.31;5071576;28;20036;-71
2024/02/17 04:55:38;;;;;;;11.95;5.60;;;12.10;99.90;;;12.38;100.00;102626.56;5087495;28;20490;-70
2024/02/17 04:58:06;;;;;;;14.70;6.65;;;12.10;99.90;;;12.34;100.00;102621.19;5071418;28;20065;-71
2024/02/17 05:00:35;;;;;;;16.83;6.15;;;12.00;99.90;;;12.45;100.00;102622.22;5071393;28;20059;-71
2024/02/17 05:03:07;;;;;;;15.93;6.30;;;12.10;99.90;;;12.52;100.00;102634.75;5071374;28;20036;-70
2024/02/17 05:05:36;;;;;;;19.90;6.72;;;12.20;99.90;;;12.41;100.00;102628.34;5071320;28;20132;-70
2024/02/17 05:08:05;;;;;;;10.23;5.95;;;12.20;99.90;;;12.45;100.00;102627.53;5070079;28;20048;-71
2024/02/17 05:10:33;;;;;;;18.98;7.15;;;12.10;99.90;;;12.45;100.00;102641.72;5070040;28;20573;-71
2024/02/17 05:13:02;;;;;;;14.10;6.80;;;12.10;99.90;;;12.43;100.00;102631.94;5071350;28;20040;-70
2024/02/17 05:15:31;;;;;;;17.17;6.72;;;12.10;99.90;;;12.57;100.00;102649.88;5071341;28;20040;-71
2024/02/17 05:17:59;;;;;;;15.65;7.15;;;12.20;99.90;;;12.40;100.00;102651.38;5071211;28;20457;-70
2024/02/17 05:20:29;;;;;;;12.80;6.65;;;12.10;99.90;;;12.43;100.00;102650.50;5071150;28;20127;-70
2024/02/17 05:22:58;;;;;;;18.93;7.57;;;12.10;99.90;;;12.43;100.00;102651.41;5069799;28;20116;-70
2024/02/17 05:25:27;;;;;;;17.45;6.53;;;12.10;99.90;;;12.49;100.00;102658.56;5071367;28;20079;-70
2024/02/17 05:27:55;;;;;;;16.02;6.45;;;12.20;99.90;;;12.53;100.00;102663.97;5070818;28;20037;-70
2024/02/17 05:30:23;;;;;;;16.48;6.18;;;12.20;99.90;;;12.49;100.00;102669.19;5070878;28;20603;-70
2024/02/17 05:32:52;;;;;;;17.00;6.30;;;12.20;99.90;;;12.62;100.00;102673.81;5071104;28;20067;-71
2024/02/17 05:35:20;;;;;;;15.32;6.78;;;12.20;99.90;;;12.61;100.00;102686.25;5070619;28;20043;-70
2024/02/17 05:37:50;;;;;;;19.80;6.70;;;12.30;99.90;;;12.51;100.00;102689.59;5070151;28;20464;-70
2024/02/17 05:40:19;;;;;;;13.50;6.47;;;12.20;99.90;;;12.54;100.00;102691.44;5070501;28;20412;-71
2024/02/17 05:42:47;;;;;;;19.98;7.95;;;12.20;99.90;;;12.53;100.00;102684.31;5070397;28;20352;-71
2024/02/17 05:45:16;;;;;;;18.25;6.93;;;12.20;99.90;;;12.51;100.00;102694.00;5070764;28;20044;-71
2024/02/17 05:47:44;;;;;;;11.73;6.50;;;12.20;99.90;;;12.58;100.00;102682.66;5070409;28;20083;-71
2024/02/17 05:50:13;;;;;;;12.20;6.60;;;12.20;99.90;;;12.72;100.00;102685.53;5070352;28;20047;-70
2024/02/17 05:52:41;;;;;;;16.42;6.40;;;12.30;99.90;;;12.68;100.00;102690.75;5070307;28;20119;-71
2024/02/17 05:55:11;;;;;;;17.23;6.78;;;12.40;99.90;;;12.76;100.00;102689.97;5070653;28;20041;-70
2024/02/17 05:57:40;;;;;;;16.65;6.72;;;12.40;99.90;;;12.81;100.00;102691.88;5071055;28;20048;-70
2024/02/17 06:00:10;;;;;;;16.50;6.72;;;12.50;99.90;;;12.72;100.00;102689.03;5070220;28;20040;-70
2024/02/17 06:02:38;;;;;;;17.58;8.07;;;12.50;99.90;;;12.67;100.00;102696.97;5070169;28;20050;-70
2024/02/17 06:05:08;;;;;;;12.23;6.40;;;12.40;99.90;;;12.74;100.00;102697.06;5069194;28;20084;-70
2024/02/17 06:07:37;;;;;;;13.43;7.20;;;12.40;99.90;;;12.78;100.00;102702.44;5069275;28;20573;-70
2024/02/17 06:10:07;;;;;;;14.65;6.93;;;12.50;99.90;;;12.80;100.00;102713.06;5070345;28;20465;-70
2024/02/17 06:12:37;;;;;;;14.13;7.10;;;12.50;99.90;;;12.67;100.00;102722.63;5070265;28;20107;-70
2024/02/17 06:15:07;;;;;;;13.03;7.37;;;12.40;99.90;;;12.56;100.00;102726.84;5070595;28;20049;-70
2024/02/17 06:17:42;;;;;;;15.30;7.25;;;12.30;99.90;;;12.59;100.00;102721.59;5070310;28;20291;-71
2024/02/17 06:22:58;;;;;;;17.25;7.00;;;12.20;99.90;;;12.47;100.00;102737.28;5086323;28;20102;-70
2024/02/17 06:25:26;;;;;;;16.70;7.05;;;12.20;99.90;;;12.29;100.00;102726.38;5070589;28;20139;-70
2024/02/17 06:27:56;;;;;;;19.92;7.53;;;12.10;99.90;;;12.34;100.00;102745.91;5069385;28;20052;-70
2024/02/17 06:30:25;;;;;;;17.35;7.22;;;12.00;99.90;;;12.30;100.00;102749.38;5069851;28;20048;-70
2024/02/17 06:32:54;;;;;;;15.93;7.47;;;12.00;99.90;;;12.15;100.00;102746.44;5070240;28;20036;-70
2024/02/17 06:35:22;;;;;;;18.15;7.80;;;11.90;99.90;;;12.12;100.00;102744.59;5070629;28;20040;-71
2024/02/17 06:37:51;;;;;;;17.65;8.00;;;11.80;99.90;;;12.19;100.00;102743.88;5070242;28;20044;-70
2024/02/17 06:40:19;;;;;;;21.13;8.65;;;11.80;99.90;;;11.74;100.00;102660.75;5070010;28;20094;-71
2024/02/17 06:42:48;;;;;;;18.80;8.60;;;11.90;99.90;;;12.32;100.00;102751.19;5069854;28;20075;-71
2024/02/17 06:45:17;;;;;;;18.55;8.00;;;12.00;99.90;;;12.31;100.00;102754.69;5069905;28;20052;-71
2024/02/17 06:47:46;;;;;;;15.27;8.48;;;12.00;99.90;;;12.38;100.00;102758.38;5070713;28;20040;-71
2024/02/17 06:50:15;;;;;;;21.00;8.60;;;12.00;99.90;;;12.37;100.00;102756.56;5071144;28;20055;-70
2024/02/17 06:52:52;;;;;;;21.15;8.70;;;12.00;99.90;;;12.40;100.00;102768.16;5074118;28;20147;-70
2024/02/17 06:55:21;;;;;;;18.83;8.13;;;12.00;99.90;;;12.59;100.00;102774.69;5074043;28;20105;-71
2024/02/17 06:57:49;;;;;;;21.95;9.18;;;12.20;99.90;;;12.56;100.00;102778.16;5073906;28;20048;-71
2024/02/17 07:00:20;;;;;;;19.67;8.85;;;12.30;99.90;;;11.93;100.00;102683.22;5073589;28;20037;-70
2024/02/17 07:02:48;;;;;;;19.52;8.50;;;12.30;99.90;;;12.51;100.00;102792.22;5072183;28;20079;-70
2024/02/17 07:05:17;;;;;;;18.58;8.55;;;12.20;99.90;;;12.37;100.00;102780.44;5073730;28;20036;-70
2024/02/17 07:07:45;;;;;;;18.83;7.97;;;12.10;99.90;;;12.47;100.00;102811.63;5072374;28;20052;-71
2024/02/17 07:10:14;;;;;;;16.35;8.02;;;12.10;99.90;;;12.40;100.00;102812.38;5073718;28;20037;-71
2024/02/17 07:12:42;;;;;;;16.85;8.55;;;12.10;99.90;;;12.54;100.00;102806.44;5073524;28;20437;-70
2024/02/17 07:15:11;;;;;;;14.00;7.65;;;12.20;99.90;;;12.65;100.00;102812.88;5073546;28;20152;-71
2024/02/17 07:17:42;;;;;;;18.15;9.13;;;12.30;99.90;;;12.76;100.00;102810.38;5073334;28;20122;-71
2024/02/17 07:20:12;;;;;;;19.27;8.27;;;12.40;99.90;;;12.82;100.00;102814.91;5073337;28;20117;-71
2024/02/17 07:22:40;;;;;;;14.50;7.82;;;12.40;99.90;;;12.83;100.00;102822.03;5073257;28;20450;-70
2024/02/17 07:25:10;;;;;;;19.17;8.90;;;12.50;99.90;;;12.90;100.00;102830.13;5073352;28;20123;-70
2024/02/17 07:27:40;;;;;;;19.48;8.38;;;12.60;99.90;;;12.91;100.00;102837.22;5073439;28;20443;-71
2024/02/17 07:30:09;;;;;;;16.15;8.48;;;12.60;99.90;;;12.90;100.00;102839.84;5073404;28;20087;-71
2024/02/17 07:32:40;;;;;;;18.65;8.20;;;12.50;99.90;;;12.78;100.00;102813.97;5072777;28;20545;-70
2024/02/17 07:35:09;;;;;;;;;;;12.60;99.90;;;13.00;100.00;102855.09;5073941;28;20111;-70
2024/02/17 07:37:37;;;;;;;18.23;8.75;;;12.70;99.90;;;12.95;100.00;102849.69;5072925;28;19924;-71
2024/02/17 07:40:08;;;;;;;15.15;8.43;;;12.60;99.90;;;12.94;100.00;102855.88;5073570;28;20072;-71
2024/02/17 07:42:37;;;;;;;18.00;9.13;;;12.60;99.90;;;12.82;100.00;102855.66;5073243;28;20051;-72
2024/02/17 07:45:07;;;;;;;19.08;9.18;;;12.50;99.90;;;12.64;100.00;102852.66;5073570;28;20123;-71
2024/02/17 07:47:35;;;;;;;16.75;9.38;;;12.40;99.90;;;12.70;100.00;102863.38;5072968;28;20071;-70
2024/02/17 07:50:07;;;;;;;16.65;8.80;;;12.30;99.90;;;12.76;100.00;102860.84;5072903;28;20047;-70
2024/02/17 07:52:36;;;;;;;18.58;9.45;;;12.40;99.90;;;12.76;100.00;102871.47;5072737;28;20489;-71
2024/02/17 07:55:05;;;;;;;17.80;9.70;;;12.40;99.90;;;12.67;100.00;102864.25;5072787;28;20040;-70
2024/02/17 07:57:35;;;;;;;17.33;9.60;;;12.40;99.90;;;12.73;100.00;102863.47;5072471;28;20041;-71
2024/02/17 08:00:04;;;;;;;20.48;9.52;;;12.40;99.90;;;12.72;100.00;102864.31;5072410;28;20157;-71
2024/02/17 08:02:32;;;;;;;16.33;9.18;;;12.40;99.90;;;12.78;100.00;102874.16;5071942;28;20397;-70
2024/02/17 08:05:02;;;;;;;16.58;9.55;;;12.40;99.90;;;12.76;100.00;102882.09;5072500;28;20529;-71
2024/02/17 08:07:35;;;;;;;19.63;9.70;;;12.40;99.90;;;12.87;100.00;102883.22;5072630;28;20045;-72
2024/02/17 08:10:04;;;;;;;29.30;10.60;;;12.50;99.90;;;12.90;100.00;102883.25;5072167;28;20406;-71
2024/02/17 08:12:32;;;;;;;20.42;9.55;;;12.50;99.90;;;12.93;100.00;102885.94;5071979;28;20048;-72
2024/02/17 08:15:00;;;;;;;21.90;10.00;;;12.60;99.90;;;13.00;100.00;102884.31;5072307;28;20040;-71
2024/02/17 08:17:29;;;;;;;23.45;9.70;;;12.70;99.90;;;13.04;100.00;102886.19;5070940;28;20052;-72
2024/02/17 08:19:58;;;;;;;22.05;9.82;;;12.70;99.90;;;13.09;100.00;102897.78;5072038;28;20094;-71
2024/02/17 08:22:33;;;;;;;20.27;9.73;;;12.70;99.90;;;13.18;100.00;102892.66;5087841;28;20051;-71
2024/02/17 08:25:03;;;;;;;14.35;8.85;;;12.80;99.90;;;13.28;100.00;102900.78;5071862;28;20256;-71
2024/02/17 08:27:35;;;;;;;17.98;9.57;;;12.90;99.90;;;13.37;99.76;102916.00;5071962;28;20033;-72
2024/02/17 08:30:05;;;;;;;19.15;9.13;;;13.00;99.90;;;13.44;99.36;102916.13;5071627;28;20056;-71
2024/02/17 08:32:33;;;;;;;15.38;9.23;;;13.10;99.90;;;13.48;98.82;102918.00;5070818;28;20180;-72
2024/02/17 08:35:02;;;;;;;19.17;9.63;;;13.20;99.90;;;13.57;98.93;102934.09;5071910;28;20041;-72
2024/02/17 08:37:32;;;;;;;15.48;8.80;;;13.30;99.90;;;13.63;98.36;102929.75;5071954;28;20401;-72
2024/02/17 08:40:01;;;;;;;14.37;8.57;;;13.30;99.90;;;13.59;98.30;102937.66;5072482;28;20569;-71
2024/02/17 08:42:30;;;;;;;16.55;9.60;;;13.30;99.90;;;13.61;98.01;102927.03;5072114;28;20294;-71
2024/02/17 08:44:58;;;;;;;19.27;9.82;;;13.40;99.90;;;13.73;97.56;102945.88;5071728;28;20393;-71
2024/02/17 08:47:26;;;;;;;13.70;8.20;;;13.40;99.90;;;13.78;97.22;102948.59;5071645;28;20036;-71
2024/02/17 08:49:55;;;;;;;12.20;8.43;;;13.50;99.90;;;13.76;96.77;102939.72;5071651;28;20078;-72
2024/02/17 08:52:24;;;;;;;12.98;7.90;;;13.50;99.90;;;13.72;96.51;102951.16;5071806;28;20406;-71
2024/02/17 08:54:54;;;;;;;14.80;8.68;;;13.40;99.90;;;13.50;96.89;102950.81;5071304;28;20052;-71
2024/02/17 08:57:22;;;;;;;14.90;8.60;;;13.20;99.90;;;13.59;97.13;102953.63;5071467;28;20075;-71
2024/02/17 08:59:51;;;;;;;15.75;8.48;;;13.20;99.90;;;13.71;97.10;102950.25;5071447;28;20348;-71
2024/02/17 09:02:19;;;;;;;14.55;8.10;;;13.30;99.90;;;13.78;96.54;102952.13;5071469;28;20048;-71
2024/02/17 09:04:48;;;;;;;18.80;9.02;;;13.40;99.90;;;13.78;96.50;102941.50;5071254;28;20535;-71
2024/02/17 09:07:16;;;;;;;17.10;9.55;;;13.50;99.90;;;13.86;96.09;102950.50;5071584;28;20051;-72
2024/02/17 09:09:45;;;;;;;15.48;8.95;;;13.60;99.90;;;13.88;96.40;102953.22;5071331;28;20051;-71
2024/02/17 09:12:15;;;;;;;14.25;9.02;;;13.50;99.90;;;13.92;96.63;102960.34;5070962;28;20655;-71
2024/02/17 09:14:43;;;;;;;19.05;9.25;;;13.60;99.90;;;13.87;96.60;102954.06;5071260;28;20040;-71
2024/02/17 09:17:12;;;;;;;14.57;8.75;;;13.60;99.90;;;13.92;96.61;102965.66;5071533;28;20040;-72
2024/02/17 09:19:40;;;;;;;16.42;9.05;;;13.60;99.90;;;13.89;96.50;102968.28;5071372;28;20033;-71
2024/02/17 09:22:09;;;;;;;14.15;8.50;;;13.60;99.90;;;13.90;96.34;102956.78;5070037;28;20740;-72
2024/02/17 09:24:38;;;;;;;14.70;8.80;;;13.60;99.90;;;13.97;96.41;102971.97;5069867;28;20405;-71
2024/02/17 09:27:09;;;;;;;15.77;8.80;;;13.60;99.90;;;13.98;96.03;102965.75;5070882;28;20040;-71
2024/02/17 09:29:40;;;;;;;17.73;9.15;;;13.60;99.90;;;13.99;96.19;102967.56;5070860;28;20406;-72
2024/02/17 09:32:09;;;;;;;14.55;8.70;;;13.70;99.90;;;14.02;96.34;102972.91;5071049;28;20068;-72
2024/02/17 09:34:38;;;;;;;16.75;8.85;;;13.70;99.90;;;13.99;95.89;102980.88;5070824;28;20040;-73
2024/02/17 09:37:08;;;;;;;17.05;8.40;;;13.70;99.90;;;13.96;95.86;102981.69;5071041;28;20044;-71
2024/02/17 09:39:39;;;;;;;15.85;8.73;;;13.60;99.90;;;14.00;95.86;102988.88;5070644;28;20090;-72
2024/02/17 09:42:08;;;;;;;12.50;8.27;;;13.60;99.90;;;14.01;95.82;102982.69;5070983;28;20124;-72
2024/02/17 09:44:40;;;;;;;17.08;8.70;;;13.70;99.90;;;14.04;95.66;102998.69;5070698;28;20133;-72
2024/02/17 09:47:09;;;;;;;16.77;8.32;;;13.70;99.90;;;14.01;95.61;102987.09;5070945;28;20066;-72
2024/02/17 09:49:40;;;;;;;17.85;8.68;;;13.70;99.90;;;13.86;95.51;102960.28;5070384;28;20110;-72
2024/02/17 09:52:09;;;;;;;14.60;7.75;;;13.70;99.90;;;13.97;95.65;102979.94;5070917;28;20051;-71
2024/02/17 09:54:39;;;;;;;14.93;7.93;;;13.70;99.90;;;13.98;95.83;102993.28;5070468;28;20048;-72
2024/02/17 09:57:07;;;;;;;12.75;7.70;;;13.60;99.90;;;13.97;95.72;102994.16;5070225;28;20500;-72
2024/02/17 09:59:37;;;;;;;13.80;7.53;;;13.60;99.90;;;13.82;95.71;102961.09;5070322;28;20071;-71
2024/02/17 10:02:09;;;;;;;17.50;8.35;;;13.70;99.90;;;13.99;95.77;102988.84;5070198;28;20044;-73
2024/02/17 10:04:54;;;;;;;13.85;8.45;;;13.70;99.90;;;13.98;95.76;102987.03;5070071;28;20120;-72
2024/02/17 10:07:23;;;;;;;14.32;8.25;;;13.60;99.90;;;13.97;95.76;102988.84;5070074;28;20135;-70
2024/02/17 10:09:52;;;;;;;10.95;7.60;;;13.70;99.90;;;13.99;95.72;102999.50;5070483;28;20053;-72
2024/02/17 10:12:20;;;;;;;15.63;7.82;;;13.70;99.90;;;14.01;95.82;103000.41;5070231;28;20036;-71